createdAt,value
2023-06-03T00:00:13.436Z,8.63
2023-06-03T00:02:40.566Z,8.62
2023-06-03T00:05:07.936Z,8.61
2023-06-03T00:07:34.536Z,8.61
2023-06-03T00:10:01.258Z,8.56
2023-06-03T00:12:28.194Z,8.45
2023-06-03T00:14:54.876Z,8.33
2023-06-03T00:17:21.545Z,8.17
2023-06-03T00:19:48.404Z,8.03
2023-06-03T00:22:15.393Z,7.89
2023-06-03T00:24:41.967Z,7.77
2023-06-03T00:27:08.977Z,7.65
2023-06-03T00:29:36.058Z,7.52
2023-06-03T00:32:02.743Z,7.40
2023-06-03T00:34:29.587Z,7.27
2023-06-03T00:36:56.206Z,7.16
2023-06-03T00:39:23.368Z,7.09
2023-06-03T00:41:49.880Z,7.04
2023-06-03T00:44:16.471Z,6.97
2023-06-03T00:46:43.234Z,6.90
2023-06-03T00:49:10.235Z,6.82
2023-06-03T00:51:37.486Z,6.79
2023-06-03T00:54:04.575Z,6.74
2023-06-03T00:56:38.937Z,6.66
2023-06-03T00:59:05.443Z,6.60
2023-06-03T01:01:31.996Z,6.56
2023-06-03T01:03:59.062Z,6.50
2023-06-03T01:06:33.761Z,6.43
2023-06-03T01:09:25.396Z,6.38
2023-06-03T01:12:06.690Z,6.30
2023-06-03T01:14:41.274Z,6.23
2023-06-03T01:17:08.766Z,6.19
2023-06-03T01:19:45.603Z,6.12
2023-06-03T01:22:13.327Z,6.06
2023-06-03T01:24:39.973Z,6.02
2023-06-03T01:27:06.989Z,6.00
2023-06-03T01:29:33.476Z,5.98
2023-06-03T01:32:01.383Z,5.95
2023-06-03T01:34:28.860Z,5.92
2023-06-03T01:36:57.566Z,5.88
2023-06-03T01:39:24.778Z,5.84
2023-06-03T01:41:53.632Z,5.77
2023-06-03T01:44:20.172Z,5.72
2023-06-03T01:46:47.292Z,5.67
2023-06-03T01:49:15.096Z,5.63
2023-06-03T01:51:41.950Z,5.59
2023-06-03T01:54:08.414Z,5.56
2023-06-03T01:56:34.934Z,5.52
2023-06-03T01:59:01.481Z,5.46
2023-06-03T02:01:28.017Z,5.42
2023-06-03T02:03:54.914Z,5.41
2023-06-03T02:06:21.432Z,5.39
2023-06-03T02:08:47.914Z,5.35
2023-06-03T02:11:14.442Z,5.31
2023-06-03T02:13:41.111Z,5.32
2023-06-03T02:16:07.596Z,5.31
2023-06-03T02:18:34.086Z,5.32
2023-06-03T02:21:00.661Z,5.36
2023-06-03T02:23:27.198Z,5.36
2023-06-03T02:25:53.948Z,5.34
2023-06-03T02:28:20.520Z,5.34
2023-06-03T02:30:47.215Z,5.32
2023-06-03T02:33:13.753Z,5.27
2023-06-03T02:35:40.220Z,5.24
2023-06-03T02:38:06.747Z,5.21
2023-06-03T02:40:33.251Z,5.23
2023-06-03T02:42:59.859Z,5.25
2023-06-03T02:45:26.337Z,5.26
2023-06-03T02:47:52.974Z,5.31
2023-06-03T02:50:19.535Z,5.36
2023-06-03T02:52:46.040Z,5.39
2023-06-03T02:55:12.669Z,5.40
2023-06-03T02:57:39.297Z,5.37
2023-06-03T03:00:06.808Z,5.35
2023-06-03T03:02:33.382Z,5.33
2023-06-03T03:05:00.012Z,5.31
2023-06-03T03:07:26.516Z,5.33
2023-06-03T03:09:53.134Z,5.44
2023-06-03T03:12:19.571Z,5.68
2023-06-03T03:14:46.320Z,5.96
2023-06-03T03:17:12.813Z,6.27
2023-06-03T03:19:39.522Z,6.61
2023-06-03T03:22:06.693Z,6.96
2023-06-03T03:24:33.426Z,7.34
2023-06-03T03:27:00.805Z,7.72
2023-06-03T03:29:27.517Z,8.16
2023-06-03T03:32:03.338Z,8.57
2023-06-03T03:34:30.280Z,8.78
2023-06-03T03:36:56.939Z,8.96
2023-06-03T03:39:23.417Z,9.19
2023-06-03T03:41:49.872Z,9.40
2023-06-03T03:44:16.375Z,9.65
2023-06-03T03:46:59.622Z,9.69
2023-06-03T03:49:31.510Z,9.82
2023-06-03T03:52:04.451Z,10.04
2023-06-03T03:54:31.755Z,10.27
2023-06-03T03:56:58.975Z,10.45
2023-06-03T03:59:27.994Z,10.70
2023-06-03T04:01:54.998Z,11.15
2023-06-03T04:04:43.685Z,11.39
2023-06-03T04:07:11.088Z,11.77
2023-06-03T04:09:38.550Z,12.15
2023-06-03T04:12:11.289Z,12.55
2023-06-03T04:14:46.648Z,12.99
2023-06-03T04:17:13.988Z,13.48
2023-06-03T04:19:40.915Z,13.81
2023-06-03T04:22:09.093Z,14.28
2023-06-03T04:24:37.948Z,14.68
2023-06-03T04:27:05.069Z,15.03
2023-06-03T04:29:32.117Z,15.16
2023-06-03T04:31:58.972Z,14.70
2023-06-03T04:34:29.701Z,14.72
2023-06-03T04:36:56.587Z,14.99
2023-06-03T04:39:23.631Z,15.22
2023-06-03T04:41:50.155Z,15.48
2023-06-03T04:44:16.705Z,15.69
2023-06-03T04:46:43.385Z,15.26
2023-06-03T04:49:09.934Z,15.30
2023-06-03T04:51:36.431Z,15.25
2023-06-03T04:54:03.505Z,15.26
2023-06-03T04:56:29.974Z,15.81
2023-06-03T04:59:01.045Z,15.71
2023-06-03T05:01:28.337Z,15.42
2023-06-03T05:03:56.046Z,15.43
2023-06-03T05:06:22.765Z,15.71
2023-06-03T05:08:49.663Z,16.04
2023-06-03T05:11:17.463Z,16.40
2023-06-03T05:13:44.430Z,16.93
2023-06-03T05:16:12.316Z,17.17
2023-06-03T05:18:38.967Z,17.23
2023-06-03T05:21:05.981Z,17.57
2023-06-03T05:23:32.670Z,17.72
2023-06-03T05:25:59.262Z,17.65
2023-06-03T05:28:26.576Z,17.56
2023-06-03T05:30:53.181Z,17.47
2023-06-03T05:33:30.014Z,17.25
2023-06-03T05:35:57.199Z,17.23
2023-06-03T05:38:24.798Z,17.58
2023-06-03T05:40:52.632Z,17.73
2023-06-03T05:43:20.204Z,17.92
2023-06-03T05:45:47.713Z,18.34
2023-06-03T05:48:14.777Z,18.35
2023-06-03T05:50:50.309Z,17.97
2023-06-03T05:53:20.781Z,18.14
2023-06-03T05:55:48.754Z,18.24
2023-06-03T05:58:15.299Z,18.24
2023-06-03T06:00:41.821Z,18.23
2023-06-03T06:03:09.668Z,18.45
2023-06-03T06:05:36.448Z,18.67
2023-06-03T06:08:02.979Z,18.29
2023-06-03T06:10:29.513Z,17.88
2023-06-03T06:12:56.102Z,17.75
2023-06-03T06:15:22.993Z,17.64
2023-06-03T06:17:49.543Z,17.52
2023-06-03T06:20:16.104Z,17.46
2023-06-03T06:22:42.704Z,17.63
2023-06-03T06:25:10.218Z,17.87
2023-06-03T06:27:36.975Z,17.66
2023-06-03T06:30:04.211Z,17.69
2023-06-03T06:32:31.040Z,17.85
2023-06-03T06:34:57.881Z,17.95
2023-06-03T06:37:24.483Z,17.99
2023-06-03T06:39:54.377Z,17.84
2023-06-03T06:42:33.032Z,18.04
2023-06-03T06:45:22.933Z,18.26
2023-06-03T06:47:49.702Z,18.19
2023-06-03T06:50:51.798Z,17.83
2023-06-03T06:53:19.273Z,17.76
2023-06-03T06:55:56.276Z,17.55
2023-06-03T06:58:25.629Z,17.35
2023-06-03T07:00:53.383Z,17.52
2023-06-03T07:03:21.200Z,17.70
2023-06-03T07:05:48.338Z,17.75
2023-06-03T07:08:15.635Z,17.84
2023-06-03T07:10:42.172Z,18.07
2023-06-03T07:13:08.977Z,18.01
2023-06-03T07:15:40.072Z,17.87
2023-06-03T07:18:07.191Z,17.43
2023-06-03T07:20:36.430Z,16.96
2023-06-03T07:23:10.086Z,16.43
2023-06-03T07:25:47.472Z,16.14
2023-06-03T07:28:22.023Z,15.98
2023-06-03T07:30:49.524Z,15.80
2023-06-03T07:33:30.789Z,15.64
2023-06-03T07:36:02.587Z,15.56
2023-06-03T07:38:38.337Z,15.49
2023-06-03T07:41:09.528Z,15.49
2023-06-03T07:43:37.591Z,15.49
2023-06-03T07:46:05.326Z,15.32
2023-06-03T07:48:32.963Z,15.54
2023-06-03T07:50:59.658Z,16.01
2023-06-03T07:53:26.502Z,16.24
2023-06-03T07:55:53.014Z,16.28
2023-06-03T07:58:19.560Z,16.13
2023-06-03T08:00:53.035Z,16.03
2023-06-03T08:03:21.391Z,16.01
2023-06-03T08:05:50.089Z,16.12
2023-06-03T08:08:18.566Z,16.14
2023-06-03T08:10:49.437Z,16.62
2023-06-03T08:13:19.180Z,16.96
2023-06-03T08:15:45.662Z,16.83
2023-06-03T08:18:33.928Z,17.20
2023-06-03T08:21:04.481Z,17.93
2023-06-03T08:23:31.472Z,18.00
2023-06-03T08:26:00.886Z,17.73
2023-06-03T08:28:27.795Z,17.81
2023-06-03T08:30:54.898Z,17.62
2023-06-03T08:33:21.756Z,17.03
2023-06-03T08:35:48.581Z,16.93
2023-06-03T08:38:16.966Z,16.86
2023-06-03T08:40:51.696Z,16.69
2023-06-03T08:43:21.390Z,16.59
2023-06-03T08:46:03.652Z,16.49
2023-06-03T08:49:04.509Z,16.38
2023-06-03T08:51:41.759Z,16.10
2023-06-03T08:54:12.839Z,16.14
2023-06-03T08:56:42.797Z,16.44
2023-06-03T08:59:13.944Z,16.54
2023-06-03T09:01:43.168Z,16.64
2023-06-03T09:04:14.870Z,16.66
2023-06-03T09:06:47.722Z,16.37
2023-06-03T09:09:16.379Z,16.33
2023-06-03T09:11:45.252Z,16.27
2023-06-03T09:14:12.298Z,16.12
2023-06-03T09:16:39.610Z,16.21
2023-06-03T09:19:06.824Z,16.43
2023-06-03T09:21:34.042Z,16.74
2023-06-03T09:24:00.574Z,17.01
2023-06-03T09:26:27.226Z,17.34
2023-06-03T09:28:53.794Z,17.47
2023-06-03T09:31:21.338Z,17.42
2023-06-03T09:33:49.056Z,17.36
2023-06-03T09:36:18.102Z,17.37
2023-06-03T09:38:54.930Z,17.30
2023-06-03T09:41:29.066Z,17.56
2023-06-03T09:44:03.422Z,17.76
2023-06-03T09:46:39.108Z,17.73
2023-06-03T09:49:10.147Z,17.64
2023-06-03T09:51:47.594Z,17.62
2023-06-03T09:54:17.382Z,17.66
2023-06-03T09:56:46.320Z,17.71
2023-06-03T09:59:21.394Z,18.05
2023-06-03T10:01:50.576Z,18.10
2023-06-03T10:04:25.856Z,18.10
2023-06-03T10:07:15.620Z,18.18
2023-06-03T10:09:43.877Z,17.87
2023-06-03T10:12:11.027Z,17.93
2023-06-03T10:14:56.395Z,18.29
2023-06-03T10:17:22.946Z,18.65
2023-06-03T10:19:49.787Z,18.69
2023-06-03T10:22:17.877Z,18.66
2023-06-03T10:24:46.507Z,18.37
2023-06-03T10:27:14.793Z,18.08
2023-06-03T10:29:41.811Z,17.98
2023-06-03T10:32:10.372Z,17.89
2023-06-03T10:34:40.997Z,17.71
2023-06-03T10:37:09.375Z,17.56
2023-06-03T10:39:36.475Z,17.50
2023-06-03T10:42:06.513Z,17.67
2023-06-03T10:44:34.442Z,17.84
2023-06-03T10:47:09.088Z,18.06
2023-06-03T10:49:45.116Z,18.17
2023-06-03T10:52:59.901Z,18.12
2023-06-03T10:55:58.116Z,18.34
2023-06-03T10:58:25.913Z,18.75
2023-06-03T11:00:59.527Z,18.85
2023-06-03T11:03:31.040Z,19.05
2023-06-03T11:06:19.518Z,18.83
2023-06-03T11:09:07.019Z,18.66
2023-06-03T11:11:39.840Z,18.78
2023-06-03T11:14:06.539Z,18.87
2023-06-03T11:16:58.086Z,18.86
2023-06-03T11:19:33.646Z,19.09
2023-06-03T11:22:01.893Z,19.13
2023-06-03T11:24:40.647Z,19.18
2023-06-03T11:27:13.504Z,19.09
2023-06-03T11:29:46.096Z,19.21
2023-06-03T11:32:13.467Z,19.17
2023-06-03T11:34:40.199Z,19.07
2023-06-03T11:37:06.689Z,19.00
2023-06-03T11:40:05.914Z,19.20
2023-06-03T11:42:52.796Z,18.99
2023-06-03T11:45:22.184Z,18.59
2023-06-03T11:47:57.941Z,18.71
2023-06-03T11:50:27.400Z,19.01
2023-06-03T11:52:54.769Z,19.43
2023-06-03T11:55:25.884Z,19.52
2023-06-03T11:57:53.127Z,19.09
2023-06-03T12:00:20.300Z,19.15
2023-06-03T12:02:47.475Z,19.23
2023-06-03T12:05:15.893Z,19.34
2023-06-03T12:07:52.985Z,19.26
2023-06-03T12:10:19.619Z,19.00
2023-06-03T12:12:56.247Z,19.02
2023-06-03T12:15:24.719Z,19.06
2023-06-03T12:17:52.550Z,19.09
2023-06-03T12:20:30.103Z,19.20
2023-06-03T12:23:00.393Z,19.35
2023-06-03T12:25:27.798Z,19.14
2023-06-03T12:27:55.739Z,19.14
2023-06-03T12:30:30.240Z,19.10
2023-06-03T12:32:56.887Z,19.14
2023-06-03T12:35:23.798Z,18.93
2023-06-03T12:38:03.797Z,18.85
2023-06-03T12:40:30.317Z,18.76
2023-06-03T12:42:57.325Z,18.77
2023-06-03T12:45:26.350Z,18.71
2023-06-03T12:47:54.243Z,18.75
2023-06-03T12:50:20.952Z,18.95
2023-06-03T12:52:48.512Z,18.99
2023-06-03T12:55:16.982Z,19.06
2023-06-03T12:57:48.523Z,19.27
2023-06-03T13:00:18.227Z,19.62
2023-06-03T13:02:47.339Z,20.14
2023-06-03T13:05:15.079Z,20.71
2023-06-03T13:07:43.216Z,21.33
2023-06-03T13:10:12.049Z,21.73
2023-06-03T13:12:40.353Z,22.05
2023-06-03T13:15:07.875Z,22.07
2023-06-03T13:17:35.219Z,22.15
2023-06-03T13:20:04.066Z,22.26
2023-06-03T13:22:30.611Z,22.45
2023-06-03T13:24:57.114Z,22.94
2023-06-03T13:27:23.942Z,23.60
2023-06-03T13:29:51.050Z,24.27
2023-06-03T13:32:17.640Z,24.81
2023-06-03T13:34:44.530Z,24.84
2023-06-03T13:37:11.469Z,24.95
2023-06-03T13:39:39.063Z,24.97
2023-06-03T13:42:06.996Z,25.33
2023-06-03T13:44:34.250Z,26.13
2023-06-03T13:47:05.597Z,26.32
2023-06-03T13:49:32.230Z,26.37
2023-06-03T13:51:58.916Z,26.03
2023-06-03T13:54:25.637Z,25.87
2023-06-03T13:56:52.451Z,26.11
2023-06-03T13:59:18.928Z,26.30
2023-06-03T14:01:45.385Z,26.54
2023-06-03T14:04:12.267Z,26.58
2023-06-03T14:06:38.733Z,26.56
2023-06-03T14:09:05.363Z,26.66
2023-06-03T14:11:32.205Z,26.47
2023-06-03T14:13:58.756Z,26.63
2023-06-03T14:16:25.670Z,26.76
2023-06-03T14:18:52.256Z,26.77
2023-06-03T14:21:18.798Z,27.12
2023-06-03T14:23:45.454Z,27.35
2023-06-03T14:26:12.054Z,27.19
2023-06-03T14:28:38.518Z,27.27
2023-06-03T14:31:05.044Z,27.75
2023-06-03T14:33:31.726Z,28.17
2023-06-03T14:35:58.195Z,28.00
2023-06-03T14:38:24.704Z,27.47
2023-06-03T14:40:51.241Z,27.60
2023-06-03T14:43:18.083Z,27.53
2023-06-03T14:45:44.828Z,27.28
2023-06-03T14:48:11.560Z,26.79
2023-06-03T14:50:38.255Z,26.01
2023-06-03T14:53:06.026Z,24.92
2023-06-03T14:55:32.657Z,23.94
2023-06-03T14:57:59.594Z,22.73
2023-06-03T15:00:26.094Z,22.04
2023-06-03T15:02:52.721Z,21.56
2023-06-03T15:05:19.440Z,21.20
2023-06-03T15:07:46.084Z,20.82
2023-06-03T15:10:12.932Z,20.54
2023-06-03T15:12:39.422Z,20.29
2023-06-03T15:15:07.019Z,20.06
2023-06-03T15:17:33.576Z,19.92
2023-06-03T15:20:00.156Z,20.09
2023-06-03T15:22:26.739Z,20.70
2023-06-03T15:24:53.290Z,21.87
2023-06-03T15:27:19.735Z,22.95
2023-06-03T15:29:46.194Z,24.04
2023-06-03T15:32:12.715Z,25.17
2023-06-03T15:34:39.173Z,25.88
2023-06-03T15:37:05.669Z,26.33
2023-06-03T15:39:32.179Z,27.16
2023-06-03T15:41:58.679Z,28.00
2023-06-03T15:44:25.952Z,28.00
2023-06-03T15:46:52.545Z,27.85
2023-06-03T15:49:19.258Z,27.95
2023-06-03T15:51:45.779Z,27.81
2023-06-03T15:54:12.335Z,27.94
2023-06-03T15:56:38.792Z,28.46
2023-06-03T15:59:05.348Z,28.57
2023-06-03T16:01:32.552Z,28.75
2023-06-03T16:03:59.100Z,29.20
2023-06-03T16:06:25.742Z,29.59
2023-06-03T16:08:52.599Z,29.67
2023-06-03T16:11:20.098Z,29.63
2023-06-03T16:13:46.617Z,29.66
2023-06-03T16:16:13.092Z,29.79
2023-06-03T16:18:39.525Z,29.45
2023-06-03T16:21:06.133Z,28.73
2023-06-03T16:23:32.743Z,28.57
2023-06-03T16:25:59.470Z,27.87
2023-06-03T16:28:27.287Z,26.30
2023-06-03T16:30:54.024Z,24.99
2023-06-03T16:33:20.924Z,23.75
2023-06-03T16:35:47.445Z,22.76
2023-06-03T16:38:14.172Z,22.49
2023-06-03T16:40:40.805Z,23.24
2023-06-03T16:43:07.275Z,24.11
2023-06-03T16:45:35.295Z,24.81
2023-06-03T16:48:03.621Z,24.96
2023-06-03T16:50:30.204Z,25.15
2023-06-03T16:52:56.696Z,25.32
2023-06-03T16:55:23.197Z,25.71
2023-06-03T16:57:49.875Z,25.79
2023-06-03T17:00:16.893Z,26.02
2023-06-03T17:02:43.344Z,25.81
2023-06-03T17:05:09.893Z,24.68
2023-06-03T17:07:36.514Z,24.54
2023-06-03T17:10:03.228Z,25.00
2023-06-03T17:12:29.886Z,25.32
2023-06-03T17:14:56.493Z,25.30
2023-06-03T17:17:23.014Z,25.26
2023-06-03T17:19:49.502Z,25.39
2023-06-03T17:22:16.099Z,25.05
2023-06-03T17:24:42.605Z,23.72
2023-06-03T17:27:09.083Z,22.60
2023-06-03T17:29:35.593Z,22.63
2023-06-03T17:32:02.387Z,23.14
2023-06-03T17:34:29.019Z,23.28
2023-06-03T17:36:55.789Z,23.58
2023-06-03T17:39:22.285Z,23.56
2023-06-03T17:41:49.068Z,23.37
2023-06-03T17:44:19.685Z,23.27
2023-06-03T17:46:46.440Z,23.33
2023-06-03T17:49:13.073Z,23.36
2023-06-03T17:51:39.769Z,23.16
2023-06-03T17:54:06.524Z,22.83
2023-06-03T17:56:32.995Z,22.73
2023-06-03T17:58:59.652Z,22.70
2023-06-03T18:01:26.243Z,22.47
2023-06-03T18:03:52.748Z,22.04
2023-06-03T18:06:19.538Z,21.75
2023-06-03T18:08:46.103Z,21.38
2023-06-03T18:11:12.680Z,21.02
2023-06-03T18:13:39.464Z,20.67
2023-06-03T18:16:06.755Z,20.31
2023-06-03T18:18:33.384Z,19.93
2023-06-03T18:20:59.977Z,19.25
2023-06-03T18:23:26.491Z,18.42
2023-06-03T18:25:52.980Z,17.75
2023-06-03T18:28:19.519Z,17.19
2023-06-03T18:30:46.025Z,16.68
2023-06-03T18:33:12.596Z,16.21
2023-06-03T18:35:39.112Z,15.77
2023-06-03T18:38:05.697Z,15.38
2023-06-03T18:40:32.144Z,15.00
2023-06-03T18:42:58.657Z,14.64
2023-06-03T18:45:25.388Z,14.31
2023-06-03T18:47:51.948Z,14.02
2023-06-03T18:50:18.685Z,13.74
2023-06-03T18:52:45.159Z,13.48
2023-06-03T18:55:11.789Z,13.21
2023-06-03T18:57:38.313Z,12.96
2023-06-03T19:00:05.364Z,12.72
2023-06-03T19:02:32.075Z,12.49
2023-06-03T19:04:58.787Z,12.29
2023-06-03T19:07:25.427Z,12.10
2023-06-03T19:09:52.064Z,11.96
2023-06-03T19:12:18.669Z,11.82
2023-06-03T19:14:45.417Z,11.67
2023-06-03T19:17:11.931Z,11.52
2023-06-03T19:19:38.443Z,11.35
2023-06-03T19:22:05.596Z,11.21
2023-06-03T19:24:32.110Z,11.10
2023-06-03T19:26:58.709Z,11.00
2023-06-03T19:29:25.241Z,10.90
2023-06-03T19:31:51.778Z,10.79
2023-06-03T19:34:18.367Z,10.70
2023-06-03T19:36:44.911Z,10.60
2023-06-03T19:39:11.481Z,10.50
2023-06-03T19:41:38.161Z,10.40
2023-06-03T19:44:04.674Z,10.30
2023-06-03T19:46:31.172Z,10.19
2023-06-03T19:48:57.881Z,10.11
2023-06-03T19:51:24.334Z,10.02
2023-06-03T19:53:50.798Z,9.94
2023-06-03T19:56:17.449Z,9.86
2023-06-03T19:58:44.129Z,9.77
2023-06-03T20:01:11.027Z,9.70
2023-06-03T20:03:37.953Z,9.66
2023-06-03T20:06:04.506Z,9.62
2023-06-03T20:08:31.131Z,9.55
2023-06-03T20:10:57.727Z,9.47
2023-06-03T20:13:34.003Z,9.37
2023-06-03T20:16:06.573Z,9.26
2023-06-03T20:18:33.872Z,9.16
2023-06-03T20:21:00.815Z,9.10
2023-06-03T20:23:27.401Z,9.06
2023-06-03T20:25:54.168Z,9.03
2023-06-03T20:28:20.826Z,8.99
2023-06-03T20:30:47.338Z,8.89
2023-06-03T20:33:13.918Z,8.81
2023-06-03T20:35:40.368Z,8.73
2023-06-03T20:38:07.080Z,8.66
2023-06-03T20:40:36.861Z,8.57
2023-06-03T20:43:03.337Z,8.47
2023-06-03T20:45:30.757Z,8.38
2023-06-03T20:47:57.427Z,8.31
2023-06-03T20:50:24.498Z,8.29
2023-06-03T20:52:51.249Z,8.24
2023-06-03T20:55:17.796Z,8.18
2023-06-03T20:57:44.359Z,8.16
2023-06-03T21:00:11.342Z,8.11
2023-06-03T21:02:37.996Z,8.04
2023-06-03T21:05:04.968Z,7.97
2023-06-03T21:07:31.698Z,7.90
2023-06-03T21:09:58.145Z,7.85
2023-06-03T21:12:24.630Z,7.78
2023-06-03T21:14:52.391Z,7.70
2023-06-03T21:17:20.132Z,7.61
2023-06-03T21:19:47.301Z,7.54
2023-06-03T21:22:13.940Z,7.50
2023-06-03T21:24:40.491Z,7.44
2023-06-03T21:27:07.171Z,7.38
2023-06-03T21:29:33.825Z,7.34
2023-06-03T21:32:00.572Z,7.32
2023-06-03T21:34:27.288Z,7.27
2023-06-03T21:36:53.797Z,7.21
2023-06-03T21:39:20.283Z,7.16
2023-06-03T21:41:46.980Z,7.10
2023-06-03T21:44:13.508Z,7.03
2023-06-03T21:46:40.477Z,6.96
2023-06-03T21:49:06.948Z,6.86
2023-06-03T21:51:34.240Z,6.76
2023-06-03T21:54:00.934Z,6.67
2023-06-03T21:56:27.429Z,6.62
2023-06-03T21:58:54.088Z,6.59
2023-06-03T22:01:20.670Z,6.55
2023-06-03T22:03:47.431Z,6.53
2023-06-03T22:06:14.236Z,6.50
2023-06-03T22:08:40.770Z,6.44
2023-06-03T22:11:07.553Z,6.34
2023-06-03T22:13:34.499Z,6.25
2023-06-03T22:16:01.223Z,6.20
2023-06-03T22:18:27.743Z,6.15
2023-06-03T22:20:54.523Z,6.09
2023-06-03T22:23:22.205Z,6.05
2023-06-03T22:25:48.838Z,6.05
2023-06-03T22:28:15.339Z,6.05
2023-06-03T22:30:41.840Z,6.05
2023-06-03T22:33:08.753Z,6.04
2023-06-03T22:35:38.339Z,6.01
2023-06-03T22:38:04.999Z,5.96
2023-06-03T22:40:31.663Z,5.93
2023-06-03T22:42:58.239Z,5.93
2023-06-03T22:45:24.899Z,5.94
2023-06-03T22:47:51.998Z,5.94
2023-06-03T22:50:19.573Z,5.94
2023-06-03T22:52:46.039Z,5.94
2023-06-03T22:55:12.654Z,5.91
2023-06-03T22:57:39.195Z,5.86
2023-06-03T23:00:06.904Z,5.80
2023-06-03T23:02:33.580Z,5.74
2023-06-03T23:05:00.357Z,5.71
2023-06-03T23:07:26.935Z,5.65
2023-06-03T23:09:53.738Z,5.59
2023-06-03T23:12:20.380Z,5.56
2023-06-03T23:14:46.828Z,5.50
2023-06-03T23:17:13.402Z,5.44
2023-06-03T23:19:40.918Z,5.37
2023-06-03T23:22:07.742Z,5.29
2023-06-03T23:24:34.211Z,5.20
2023-06-03T23:27:00.724Z,5.11
2023-06-03T23:29:27.182Z,5.04
2023-06-03T23:31:53.700Z,4.97
2023-06-03T23:34:20.380Z,4.90
2023-06-03T23:36:46.927Z,4.87
2023-06-03T23:39:13.420Z,4.83
2023-06-03T23:41:39.988Z,4.82
2023-06-03T23:44:06.675Z,4.81
2023-06-03T23:46:33.251Z,4.81
2023-06-03T23:48:59.931Z,4.82
2023-06-03T23:51:26.647Z,4.82
2023-06-03T23:53:53.229Z,4.79
2023-06-03T23:56:19.760Z,4.73
2023-06-03T23:58:46.447Z,4.69
